sensor_id;sensor_type;location;lat;lon;timestamp;P1;durP1;ratioP1;P2;durP2;ratioP2
19049;SDS011;9657;45.940;12.840;2022-07-01T00:00:59;4.93;;;3.72;;
19049;SDS011;9657;45.940;12.840;2022-07-01T00:03:27;5.97;;;4.47;;
19049;SDS011;9657;45.940;12.840;2022-07-01T00:05:55;7.35;;;3.90;;
19049;SDS011;9657;45.940;12.840;2022-07-01T00:08:22;7.20;;;4.10;;
19049;SDS011;9657;45.940;12.840;2022-07-01T00:10:49;6.38;;;4.55;;
19049;SDS011;9657;45.940;12.840;2022-07-01T00:13:16;7.00;;;4.15;;
19049;SDS011;9657;45.940;12.840;2022-07-01T00:15:43;6.82;;;4.68;;
19049;SDS011;9657;45.940;12.840;2022-07-01T00:18:10;5.90;;;4.53;;
19049;SDS011;9657;45.940;12.840;2022-07-01T00:20:39;8.52;;;4.63;;
19049;SDS011;9657;45.940;12.840;2022-07-01T00:23:06;6.13;;;4.70;;
19049;SDS011;9657;45.940;12.840;2022-07-01T00:25:33;5.85;;;4.47;;
19049;SDS011;9657;45.940;12.840;2022-07-01T00:28:00;6.18;;;4.38;;
19049;SDS011;9657;45.940;12.840;2022-07-01T00:30:27;8.88;;;5.18;;
19049;SDS011;9657;45.940;12.840;2022-07-01T00:32:55;5.88;;;4.32;;
19049;SDS011;9657;45.940;12.840;2022-07-01T00:35:22;7.13;;;4.43;;
19049;SDS011;9657;45.940;12.840;2022-07-01T00:37:50;7.97;;;4.22;;
19049;SDS011;9657;45.940;12.840;2022-07-01T00:40:17;9.02;;;4.50;;
19049;SDS011;9657;45.940;12.840;2022-07-01T00:42:44;8.20;;;4.30;;
19049;SDS011;9657;45.940;12.840;2022-07-01T00:45:12;8.27;;;4.90;;
19049;SDS011;9657;45.940;12.840;2022-07-01T00:47:39;7.28;;;4.65;;
19049;SDS011;9657;45.940;12.840;2022-07-01T00:50:08;5.72;;;4.30;;
19049;SDS011;9657;45.940;12.840;2022-07-01T00:52:37;5.22;;;4.50;;
19049;SDS011;9657;45.940;12.840;2022-07-01T00:55:08;5.43;;;4.40;;
19049;SDS011;9657;45.940;12.840;2022-07-01T00:57:36;9.13;;;4.85;;
19049;SDS011;9657;45.940;12.840;2022-07-01T01:02:40;6.10;;;4.53;;
19049;SDS011;9657;45.940;12.840;2022-07-01T01:05:08;5.30;;;4.32;;
19049;SDS011;9657;45.940;12.840;2022-07-01T01:07:35;6.40;;;4.38;;
19049;SDS011;9657;45.940;12.840;2022-07-01T01:10:03;4.97;;;4.00;;
19049;SDS011;9657;45.940;12.840;2022-07-01T01:12:32;6.32;;;4.47;;
19049;SDS011;9657;45.940;12.840;2022-07-01T01:15:00;9.55;;;4.65;;
19049;SDS011;9657;45.940;12.840;2022-07-01T01:17:27;8.10;;;4.60;;
19049;SDS011;9657;45.940;12.840;2022-07-01T01:19:55;7.20;;;5.18;;
19049;SDS011;9657;45.940;12.840;2022-07-01T01:22:23;6.68;;;4.30;;
19049;SDS011;9657;45.940;12.840;2022-07-01T01:24:51;7.43;;;4.85;;
19049;SDS011;9657;45.940;12.840;2022-07-01T01:27:18;5.82;;;4.90;;
19049;SDS011;9657;45.940;12.840;2022-07-01T01:29:45;6.13;;;4.72;;
19049;SDS011;9657;45.940;12.840;2022-07-01T01:32:12;5.47;;;4.93;;
19049;SDS011;9657;45.940;12.840;2022-07-01T01:34:39;6.72;;;4.53;;
19049;SDS011;9657;45.940;12.840;2022-07-01T01:37:07;7.20;;;5.00;;
19049;SDS011;9657;45.940;12.840;2022-07-01T01:39:36;7.38;;;5.15;;
19049;SDS011;9657;45.940;12.840;2022-07-01T01:42:03;6.93;;;4.85;;
19049;SDS011;9657;45.940;12.840;2022-07-01T01:44:32;6.72;;;4.85;;
19049;SDS011;9657;45.940;12.840;2022-07-01T01:46:59;7.50;;;4.82;;
19049;SDS011;9657;45.940;12.840;2022-07-01T01:49:26;6.20;;;4.85;;
19049;SDS011;9657;45.940;12.840;2022-07-01T01:51:53;9.85;;;5.10;;
19049;SDS011;9657;45.940;12.840;2022-07-01T01:54:21;8.57;;;5.07;;
19049;SDS011;9657;45.940;12.840;2022-07-01T01:56:49;8.20;;;4.80;;
19049;SDS011;9657;45.940;12.840;2022-07-01T01:59:16;5.78;;;4.28;;
19049;SDS011;9657;45.940;12.840;2022-07-01T02:01:44;6.40;;;4.57;;
19049;SDS011;9657;45.940;12.840;2022-07-01T02:04:11;5.40;;;4.63;;
19049;SDS011;9657;45.940;12.840;2022-07-01T02:06:38;5.93;;;4.55;;
19049;SDS011;9657;45.940;12.840;2022-07-01T02:09:06;5.55;;;3.78;;
19049;SDS011;9657;45.940;12.840;2022-07-01T02:11:33;8.15;;;4.75;;
19049;SDS011;9657;45.940;12.840;2022-07-01T02:14:02;7.63;;;4.85;;
19049;SDS011;9657;45.940;12.840;2022-07-01T02:16:29;6.20;;;4.28;;
19049;SDS011;9657;45.940;12.840;2022-07-01T02:18:56;7.47;;;4.53;;
19049;SDS011;9657;45.940;12.840;2022-07-01T02:21:23;7.18;;;4.68;;
19049;SDS011;9657;45.940;12.840;2022-07-01T02:23:50;5.75;;;4.28;;
19049;SDS011;9657;45.940;12.840;2022-07-01T02:26:18;6.18;;;4.45;;
19049;SDS011;9657;45.940;12.840;2022-07-01T02:28:46;4.78;;;4.15;;
19049;SDS011;9657;45.940;12.840;2022-07-01T02:31:14;7.25;;;4.65;;
19049;SDS011;9657;45.940;12.840;2022-07-01T02:33:41;4.88;;;4.07;;
19049;SDS011;9657;45.940;12.840;2022-07-01T02:36:08;5.05;;;4.50;;
19049;SDS011;9657;45.940;12.840;2022-07-01T02:38:35;5.85;;;4.40;;
19049;SDS011;9657;45.940;12.840;2022-07-01T02:41:02;4.70;;;4.00;;
19049;SDS011;9657;45.940;12.840;2022-07-01T02:43:29;5.03;;;4.05;;
19049;SDS011;9657;45.940;12.840;2022-07-01T02:45:56;3.83;;;3.42;;
19049;SDS011;9657;45.940;12.840;2022-07-01T02:48:25;4.35;;;3.80;;
19049;SDS011;9657;45.940;12.840;2022-07-01T02:50:52;6.65;;;4.00;;
19049;SDS011;9657;45.940;12.840;2022-07-01T02:53:19;5.53;;;4.20;;
19049;SDS011;9657;45.940;12.840;2022-07-01T02:55:46;7.90;;;4.55;;
19049;SDS011;9657;45.940;12.840;2022-07-01T02:58:13;5.78;;;4.05;;
19049;SDS011;9657;45.940;12.840;2022-07-01T03:00:40;6.68;;;4.35;;
19049;SDS011;9657;45.940;12.840;2022-07-01T03:03:07;4.65;;;3.78;;
19049;SDS011;9657;45.940;12.840;2022-07-01T03:05:36;4.80;;;4.22;;
19049;SDS011;9657;45.940;12.840;2022-07-01T03:08:03;6.75;;;4.32;;
19049;SDS011;9657;45.940;12.840;2022-07-01T03:10:31;5.90;;;4.13;;
19049;SDS011;9657;45.940;12.840;2022-07-01T03:12:58;8.05;;;4.53;;
19049;SDS011;9657;45.940;12.840;2022-07-01T03:15:27;6.75;;;4.32;;
19049;SDS011;9657;45.940;12.840;2022-07-01T03:17:54;5.15;;;4.20;;
19049;SDS011;9657;45.940;12.840;2022-07-01T03:20:21;6.05;;;4.30;;
19049;SDS011;9657;45.940;12.840;2022-07-01T03:22:49;5.22;;;4.38;;
19049;SDS011;9657;45.940;12.840;2022-07-01T03:25:17;6.32;;;3.63;;
19049;SDS011;9657;45.940;12.840;2022-07-01T03:27:44;6.38;;;4.63;;
19049;SDS011;9657;45.940;12.840;2022-07-01T03:30:13;6.28;;;4.78;;
19049;SDS011;9657;45.940;12.840;2022-07-01T03:32:41;8.50;;;4.78;;
19049;SDS011;9657;45.940;12.840;2022-07-01T03:35:08;8.32;;;4.70;;
19049;SDS011;9657;45.940;12.840;2022-07-01T03:37:55;7.05;;;4.43;;
19049;SDS011;9657;45.940;12.840;2022-07-01T03:40:22;4.60;;;4.20;;
19049;SDS011;9657;45.940;12.840;2022-07-01T03:42:50;5.25;;;4.40;;
19049;SDS011;9657;45.940;12.840;2022-07-01T03:45:17;9.20;;;4.55;;
19049;SDS011;9657;45.940;12.840;2022-07-01T03:47:45;6.18;;;4.60;;
19049;SDS011;9657;45.940;12.840;2022-07-01T03:50:13;8.48;;;4.55;;
19049;SDS011;9657;45.940;12.840;2022-07-01T03:52:40;8.13;;;4.53;;
19049;SDS011;9657;45.940;12.840;2022-07-01T03:55:09;9.95;;;4.97;;
19049;SDS011;9657;45.940;12.840;2022-07-01T03:57:36;5.50;;;5.00;;
19049;SDS011;9657;45.940;12.840;2022-07-01T04:00:03;6.45;;;4.78;;
19049;SDS011;9657;45.940;12.840;2022-07-01T04:02:32;8.95;;;5.22;;
19049;SDS011;9657;45.940;12.840;2022-07-01T04:04:59;5.40;;;4.30;;
19049;SDS011;9657;45.940;12.840;2022-07-01T04:07:26;6.90;;;4.28;;
19049;SDS011;9657;45.940;12.840;2022-07-01T04:09:53;6.22;;;4.68;;
19049;SDS011;9657;45.940;12.840;2022-07-01T04:12:21;7.00;;;5.07;;
19049;SDS011;9657;45.940;12.840;2022-07-01T04:14:49;7.82;;;4.25;;
19049;SDS011;9657;45.940;12.840;2022-07-01T04:17:16;6.82;;;4.82;;
19049;SDS011;9657;45.940;12.840;2022-07-01T04:19:43;7.85;;;5.03;;
19049;SDS011;9657;45.940;12.840;2022-07-01T04:22:10;7.63;;;5.07;;
19049;SDS011;9657;45.940;12.840;2022-07-01T04:24:54;5.70;;;5.00;;
19049;SDS011;9657;45.940;12.840;2022-07-01T04:27:23;5.75;;;4.70;;
19049;SDS011;9657;45.940;12.840;2022-07-01T04:29:50;7.15;;;5.05;;
19049;SDS011;9657;45.940;12.840;2022-07-01T04:32:17;6.22;;;5.53;;
19049;SDS011;9657;45.940;12.840;2022-07-01T04:34:44;6.32;;;5.38;;
19049;SDS011;9657;45.940;12.840;2022-07-01T04:37:11;6.22;;;5.60;;
19049;SDS011;9657;45.940;12.840;2022-07-01T04:39:38;8.63;;;5.55;;
19049;SDS011;9657;45.940;12.840;2022-07-01T04:42:05;6.95;;;5.43;;
19049;SDS011;9657;45.940;12.840;2022-07-01T04:44:34;6.63;;;5.72;;
19049;SDS011;9657;45.940;12.840;2022-07-01T04:47:03;6.35;;;5.15;;
19049;SDS011;9657;45.940;12.840;2022-07-01T04:49:30;9.13;;;5.43;;
19049;SDS011;9657;45.940;12.840;2022-07-01T04:51:58;9.52;;;6.50;;
19049;SDS011;9657;45.940;12.840;2022-07-01T04:54:25;7.85;;;5.53;;
19049;SDS011;9657;45.940;12.840;2022-07-01T04:56:52;10.02;;;6.63;;
19049;SDS011;9657;45.940;12.840;2022-07-01T04:59:19;8.27;;;6.40;;
19049;SDS011;9657;45.940;12.840;2022-07-01T05:01:48;7.93;;;6.07;;
19049;SDS011;9657;45.940;12.840;2022-07-01T05:04:15;8.30;;;6.15;;
19049;SDS011;9657;45.940;12.840;2022-07-01T05:06:43;6.68;;;5.97;;
19049;SDS011;9657;45.940;12.840;2022-07-01T05:09:11;8.00;;;6.22;;
19049;SDS011;9657;45.940;12.840;2022-07-01T05:11:38;8.90;;;6.40;;
19049;SDS011;9657;45.940;12.840;2022-07-01T05:14:05;8.90;;;5.93;;
19049;SDS011;9657;45.940;12.840;2022-07-01T05:16:33;10.07;;;6.55;;
19049;SDS011;9657;45.940;12.840;2022-07-01T05:19:01;7.03;;;6.32;;
19049;SDS011;9657;45.940;12.840;2022-07-01T05:21:47;9.63;;;6.40;;
19049;SDS011;9657;45.940;12.840;2022-07-01T05:24:24;6.97;;;5.85;;
19049;SDS011;9657;45.940;12.840;2022-07-01T05:26:53;9.65;;;6.88;;
19049;SDS011;9657;45.940;12.840;2022-07-01T05:29:20;8.95;;;6.32;;
19049;SDS011;9657;45.940;12.840;2022-07-01T05:31:47;10.15;;;7.18;;
19049;SDS011;9657;45.940;12.840;2022-07-01T05:34:16;12.07;;;7.45;;
19049;SDS011;9657;45.940;12.840;2022-07-01T05:36:43;10.13;;;7.68;;
19049;SDS011;9657;45.940;12.840;2022-07-01T05:39:10;9.25;;;6.93;;
19049;SDS011;9657;45.940;12.840;2022-07-01T05:41:37;9.10;;;6.38;;
19049;SDS011;9657;45.940;12.840;2022-07-01T05:44:04;8.70;;;6.72;;
19049;SDS011;9657;45.940;12.840;2022-07-01T05:46:31;8.52;;;6.88;;
19049;SDS011;9657;45.940;12.840;2022-07-01T05:48:59;11.65;;;7.30;;
19049;SDS011;9657;45.940;12.840;2022-07-01T05:51:27;10.52;;;6.80;;
19049;SDS011;9657;45.940;12.840;2022-07-01T05:53:54;10.20;;;7.20;;
19049;SDS011;9657;45.940;12.840;2022-07-01T05:56:23;12.20;;;7.05;;
19049;SDS011;9657;45.940;12.840;2022-07-01T05:58:50;11.60;;;7.18;;
19049;SDS011;9657;45.940;12.840;2022-07-01T06:01:18;9.02;;;7.32;;
19049;SDS011;9657;45.940;12.840;2022-07-01T06:03:45;12.00;;;6.78;;
19049;SDS011;9657;45.940;12.840;2022-07-01T06:06:12;12.38;;;7.70;;
19049;SDS011;9657;45.940;12.840;2022-07-01T06:08:41;7.93;;;7.13;;
19049;SDS011;9657;45.940;12.840;2022-07-01T06:11:08;9.88;;;7.20;;
19049;SDS011;9657;45.940;12.840;2022-07-01T06:13:35;10.38;;;7.38;;
19049;SDS011;9657;45.940;12.840;2022-07-01T06:16:02;7.78;;;6.43;;
19049;SDS011;9657;45.940;12.840;2022-07-01T06:18:29;9.40;;;6.60;;
19049;SDS011;9657;45.940;12.840;2022-07-01T06:20:57;6.97;;;6.03;;
19049;SDS011;9657;45.940;12.840;2022-07-01T06:23:24;7.63;;;6.57;;
19049;SDS011;9657;45.940;12.840;2022-07-01T06:25:52;8.27;;;6.18;;
19049;SDS011;9657;45.940;12.840;2022-07-01T06:28:19;9.15;;;5.85;;
19049;SDS011;9657;45.940;12.840;2022-07-01T06:30:46;10.38;;;6.30;;
19049;SDS011;9657;45.940;12.840;2022-07-01T06:33:13;8.50;;;6.20;;
19049;SDS011;9657;45.940;12.840;2022-07-01T06:35:40;8.20;;;6.90;;
19049;SDS011;9657;45.940;12.840;2022-07-01T06:38:08;7.45;;;6.38;;
19049;SDS011;9657;45.940;12.840;2022-07-01T06:40:35;7.03;;;6.18;;
19049;SDS011;9657;45.940;12.840;2022-07-01T06:43:03;13.10;;;6.22;;
19049;SDS011;9657;45.940;12.840;2022-07-01T06:45:30;10.27;;;6.30;;
19049;SDS011;9657;45.940;12.840;2022-07-01T06:47:57;9.93;;;6.05;;
19049;SDS011;9657;45.940;12.840;2022-07-01T06:50:24;6.13;;;5.53;;
19049;SDS011;9657;45.940;12.840;2022-07-01T06:52:51;10.13;;;6.20;;
19049;SDS011;9657;45.940;12.840;2022-07-01T06:55:18;8.43;;;5.85;;
19049;SDS011;9657;45.940;12.840;2022-07-01T06:57:46;10.00;;;5.72;;
19049;SDS011;9657;45.940;12.840;2022-07-01T07:00:14;6.85;;;5.47;;
19049;SDS011;9657;45.940;12.840;2022-07-01T07:02:41;7.32;;;5.65;;
19049;SDS011;9657;45.940;12.840;2022-07-01T07:05:09;8.60;;;5.18;;
19049;SDS011;9657;45.940;12.840;2022-07-01T07:07:36;8.43;;;4.82;;
19049;SDS011;9657;45.940;12.840;2022-07-01T07:10:03;8.60;;;5.57;;
19049;SDS011;9657;45.940;12.840;2022-07-01T07:12:31;10.75;;;5.00;;
19049;SDS011;9657;45.940;12.840;2022-07-01T07:14:58;6.03;;;4.80;;
19049;SDS011;9657;45.940;12.840;2022-07-01T07:17:27;8.77;;;5.22;;
19049;SDS011;9657;45.940;12.840;2022-07-01T07:19:54;8.00;;;4.60;;
19049;SDS011;9657;45.940;12.840;2022-07-01T07:22:21;7.57;;;5.00;;
19049;SDS011;9657;45.940;12.840;2022-07-01T07:24:48;8.05;;;5.07;;
19049;SDS011;9657;45.940;12.840;2022-07-01T07:27:15;11.02;;;5.05;;
19049;SDS011;9657;45.940;12.840;2022-07-01T07:29:42;9.77;;;4.95;;
19049;SDS011;9657;45.940;12.840;2022-07-01T07:32:10;5.93;;;4.90;;
19049;SDS011;9657;45.940;12.840;2022-07-01T07:34:38;9.68;;;5.00;;
19049;SDS011;9657;45.940;12.840;2022-07-01T07:37:05;6.38;;;4.53;;
19049;SDS011;9657;45.940;12.840;2022-07-01T07:39:32;7.18;;;4.60;;
19049;SDS011;9657;45.940;12.840;2022-07-01T07:42:00;9.38;;;4.80;;
19049;SDS011;9657;45.940;12.840;2022-07-01T07:44:27;7.10;;;4.43;;
19049;SDS011;9657;45.940;12.840;2022-07-01T07:46:54;9.63;;;4.97;;
19049;SDS011;9657;45.940;12.840;2022-07-01T07:49:23;5.90;;;4.00;;
19049;SDS011;9657;45.940;12.840;2022-07-01T07:51:51;6.03;;;4.03;;
19049;SDS011;9657;45.940;12.840;2022-07-01T07:54:18;8.57;;;4.60;;
19049;SDS011;9657;45.940;12.840;2022-07-01T07:56:45;6.72;;;3.97;;
19049;SDS011;9657;45.940;12.840;2022-07-01T07:59:13;8.30;;;4.28;;
19049;SDS011;9657;45.940;12.840;2022-07-01T08:01:40;8.10;;;4.47;;
19049;SDS011;9657;45.940;12.840;2022-07-01T08:04:07;4.90;;;4.18;;
19049;SDS011;9657;45.940;12.840;2022-07-01T08:06:34;7.63;;;4.20;;
19049;SDS011;9657;45.940;12.840;2022-07-01T08:09:03;8.98;;;4.30;;
19049;SDS011;9657;45.940;12.840;2022-07-01T08:11:30;9.07;;;4.40;;
19049;SDS011;9657;45.940;12.840;2022-07-01T08:13:57;11.45;;;5.03;;
19049;SDS011;9657;45.940;12.840;2022-07-01T08:16:25;7.70;;;4.22;;
19049;SDS011;9657;45.940;12.840;2022-07-01T08:18:52;6.75;;;4.43;;
19049;SDS011;9657;45.940;12.840;2022-07-01T08:21:19;6.82;;;3.83;;
19049;SDS011;9657;45.940;12.840;2022-07-01T08:23:46;10.00;;;4.60;;
19049;SDS011;9657;45.940;12.840;2022-07-01T08:26:15;6.68;;;4.00;;
19049;SDS011;9657;45.940;12.840;2022-07-01T08:28:43;7.60;;;4.70;;
19049;SDS011;9657;45.940;12.840;2022-07-01T08:31:10;5.47;;;3.80;;
19049;SDS011;9657;45.940;12.840;2022-07-01T08:33:37;7.85;;;4.32;;
19049;SDS011;9657;45.940;12.840;2022-07-01T08:36:05;3.97;;;3.58;;
19049;SDS011;9657;45.940;12.840;2022-07-01T08:38:32;5.45;;;3.88;;
19049;SDS011;9657;45.940;12.840;2022-07-01T08:41:00;5.53;;;4.28;;
19049;SDS011;9657;45.940;12.840;2022-07-01T08:43:29;6.15;;;3.70;;
19049;SDS011;9657;45.940;12.840;2022-07-01T08:45:57;6.55;;;4.47;;
19049;SDS011;9657;45.940;12.840;2022-07-01T08:48:26;6.93;;;4.03;;
19049;SDS011;9657;45.940;12.840;2022-07-01T08:50:53;6.38;;;3.70;;
19049;SDS011;9657;45.940;12.840;2022-07-01T08:53:21;5.57;;;3.53;;
19049;SDS011;9657;45.940;12.840;2022-07-01T08:55:48;4.75;;;3.40;;
19049;SDS011;9657;45.940;12.840;2022-07-01T08:58:34;5.30;;;3.38;;
19049;SDS011;9657;45.940;12.840;2022-07-01T09:01:11;5.07;;;3.80;;
19049;SDS011;9657;45.940;12.840;2022-07-01T09:03:41;9.02;;;3.72;;
19049;SDS011;9657;45.940;12.840;2022-07-01T09:06:13;5.90;;;3.58;;
19049;SDS011;9657;45.940;12.840;2022-07-01T09:08:41;6.78;;;3.42;;
19049;SDS011;9657;45.940;12.840;2022-07-01T09:11:12;5.22;;;3.72;;
19049;SDS011;9657;45.940;12.840;2022-07-01T09:13:41;6.65;;;3.40;;
19049;SDS011;9657;45.940;12.840;2022-07-01T09:16:11;4.13;;;3.58;;
19049;SDS011;9657;45.940;12.840;2022-07-01T09:18:39;4.55;;;3.28;;
19049;SDS011;9657;45.940;12.840;2022-07-01T09:21:07;7.70;;;3.50;;
19049;SDS011;9657;45.940;12.840;2022-07-01T09:23:38;5.45;;;3.20;;
19049;SDS011;9657;45.940;12.840;2022-07-01T09:26:06;3.80;;;3.33;;
19049;SDS011;9657;45.940;12.840;2022-07-01T09:28:33;6.50;;;3.80;;
19049;SDS011;9657;45.940;12.840;2022-07-01T09:31:01;5.18;;;4.68;;
19049;SDS011;9657;45.940;12.840;2022-07-01T09:33:28;9.43;;;6.80;;
19049;SDS011;9657;45.940;12.840;2022-07-01T09:35:56;11.85;;;7.65;;
19049;SDS011;9657;45.940;12.840;2022-07-01T09:38:25;11.98;;;8.57;;
19049;SDS011;9657;45.940;12.840;2022-07-01T09:40:53;14.75;;;9.23;;
19049;SDS011;9657;45.940;12.840;2022-07-01T09:43:22;10.20;;;9.05;;
19049;SDS011;9657;45.940;12.840;2022-07-01T09:45:51;12.02;;;8.25;;
19049;SDS011;9657;45.940;12.840;2022-07-01T09:48:21;8.15;;;7.22;;
19049;SDS011;9657;45.940;12.840;2022-07-01T09:50:49;9.45;;;6.50;;
19049;SDS011;9657;45.940;12.840;2022-07-01T09:53:17;8.68;;;6.07;;
19049;SDS011;9657;45.940;12.840;2022-07-01T09:55:44;10.63;;;6.40;;
19049;SDS011;9657;45.940;12.840;2022-07-01T09:58:11;7.70;;;5.25;;
19049;SDS011;9657;45.940;12.840;2022-07-01T10:00:39;6.72;;;5.07;;
19049;SDS011;9657;45.940;12.840;2022-07-01T10:03:06;9.35;;;5.25;;
19049;SDS011;9657;45.940;12.840;2022-07-01T10:05:38;9.93;;;4.93;;
19049;SDS011;9657;45.940;12.840;2022-07-01T10:14:13;10.70;;;5.00;;
19049;SDS011;9657;45.940;12.840;2022-07-01T10:16:41;7.90;;;4.47;;
19049;SDS011;9657;45.940;12.840;2022-07-01T10:19:24;8.13;;;5.22;;
19049;SDS011;9657;45.940;12.840;2022-07-01T10:21:53;5.47;;;4.78;;
19049;SDS011;9657;45.940;12.840;2022-07-01T10:24:24;7.53;;;4.78;;
19049;SDS011;9657;45.940;12.840;2022-07-01T10:26:52;5.40;;;4.20;;
19049;SDS011;9657;45.940;12.840;2022-07-01T10:29:28;5.07;;;3.88;;
19049;SDS011;9657;45.940;12.840;2022-07-01T10:31:59;4.85;;;4.18;;
19049;SDS011;9657;45.940;12.840;2022-07-01T10:34:34;6.03;;;3.50;;
19049;SDS011;9657;45.940;12.840;2022-07-01T10:37:05;5.75;;;3.95;;
19049;SDS011;9657;45.940;12.840;2022-07-01T10:42:30;6.65;;;3.92;;
19049;SDS011;9657;45.940;12.840;2022-07-01T10:45:05;5.97;;;4.28;;
19049;SDS011;9657;45.940;12.840;2022-07-01T10:47:34;7.57;;;4.20;;
19049;SDS011;9657;45.940;12.840;2022-07-01T10:50:09;8.05;;;4.78;;
19049;SDS011;9657;45.940;12.840;2022-07-01T10:52:40;6.60;;;4.70;;
19049;SDS011;9657;45.940;12.840;2022-07-01T10:55:35;6.20;;;4.38;;
19049;SDS011;9657;45.940;12.840;2022-07-01T10:58:02;7.53;;;4.30;;
19049;SDS011;9657;45.940;12.840;2022-07-01T11:00:31;6.95;;;4.10;;
19049;SDS011;9657;45.940;12.840;2022-07-01T11:05:52;6.50;;;4.07;;
19049;SDS011;9657;45.940;12.840;2022-07-01T11:08:23;8.32;;;4.55;;
19049;SDS011;9657;45.940;12.840;2022-07-01T11:10:51;7.88;;;4.55;;
19049;SDS011;9657;45.940;12.840;2022-07-01T11:13:21;7.10;;;4.38;;
19049;SDS011;9657;45.940;12.840;2022-07-01T11:15:48;7.00;;;4.30;;
19049;SDS011;9657;45.940;12.840;2022-07-01T11:18:16;6.47;;;3.70;;
19049;SDS011;9657;45.940;12.840;2022-07-01T11:20:45;6.45;;;3.78;;
19049;SDS011;9657;45.940;12.840;2022-07-01T11:23:12;6.40;;;3.38;;
19049;SDS011;9657;45.940;12.840;2022-07-01T11:25:43;8.57;;;4.43;;
19049;SDS011;9657;45.940;12.840;2022-07-01T11:28:10;5.97;;;3.50;;
19049;SDS011;9657;45.940;12.840;2022-07-01T11:30:38;6.35;;;3.72;;
19049;SDS011;9657;45.940;12.840;2022-07-01T11:33:05;7.10;;;4.75;;
19049;SDS011;9657;45.940;12.840;2022-07-01T11:35:35;7.47;;;4.70;;
19049;SDS011;9657;45.940;12.840;2022-07-01T11:38:20;6.28;;;4.38;;
19049;SDS011;9657;45.940;12.840;2022-07-01T11:41:07;7.95;;;4.80;;
19049;SDS011;9657;45.940;12.840;2022-07-01T11:43:36;8.63;;;4.35;;
19049;SDS011;9657;45.940;12.840;2022-07-01T11:46:05;7.43;;;4.20;;
19049;SDS011;9657;45.940;12.840;2022-07-01T11:48:34;9.20;;;4.47;;
19049;SDS011;9657;45.940;12.840;2022-07-01T11:51:06;7.80;;;5.18;;
19049;SDS011;9657;45.940;12.840;2022-07-01T11:53:35;8.57;;;4.85;;
19049;SDS011;9657;45.940;12.840;2022-07-01T11:56:03;7.22;;;5.05;;
19049;SDS011;9657;45.940;12.840;2022-07-01T11:58:45;8.75;;;4.50;;
19049;SDS011;9657;45.940;12.840;2022-07-01T12:01:24;10.00;;;5.25;;
19049;SDS011;9657;45.940;12.840;2022-07-01T12:03:53;7.70;;;5.10;;
19049;SDS011;9657;45.940;12.840;2022-07-01T12:06:21;10.18;;;5.13;;
19049;SDS011;9657;45.940;12.840;2022-07-01T12:08:49;8.15;;;4.70;;
19049;SDS011;9657;45.940;12.840;2022-07-01T12:11:18;8.05;;;4.55;;
19049;SDS011;9657;45.940;12.840;2022-07-01T12:13:48;7.35;;;4.43;;
19049;SDS011;9657;45.940;12.840;2022-07-01T12:16:17;6.40;;;4.93;;
19049;SDS011;9657;45.940;12.840;2022-07-01T12:18:51;7.68;;;4.47;;
19049;SDS011;9657;45.940;12.840;2022-07-01T12:21:22;7.53;;;4.80;;
19049;SDS011;9657;45.940;12.840;2022-07-01T12:24:06;7.75;;;5.10;;
19049;SDS011;9657;45.940;12.840;2022-07-01T12:26:35;10.13;;;4.93;;
19049;SDS011;9657;45.940;12.840;2022-07-01T12:29:14;9.88;;;4.55;;
19049;SDS011;9657;45.940;12.840;2022-07-01T12:31:42;8.38;;;5.05;;
19049;SDS011;9657;45.940;12.840;2022-07-01T12:34:10;7.75;;;5.40;;
19049;SDS011;9657;45.940;12.840;2022-07-01T12:36:37;7.47;;;4.75;;
19049;SDS011;9657;45.940;12.840;2022-07-01T12:39:12;7.80;;;4.60;;
19049;SDS011;9657;45.940;12.840;2022-07-01T12:41:39;11.65;;;5.10;;
19049;SDS011;9657;45.940;12.840;2022-07-01T12:44:06;6.78;;;4.95;;
19049;SDS011;9657;45.940;12.840;2022-07-01T12:46:49;10.50;;;5.90;;
19049;SDS011;9657;45.940;12.840;2022-07-01T12:49:19;8.48;;;5.15;;
19049;SDS011;9657;45.940;12.840;2022-07-01T12:51:48;7.82;;;5.30;;
19049;SDS011;9657;45.940;12.840;2022-07-01T12:54:30;10.35;;;5.93;;
19049;SDS011;9657;45.940;12.840;2022-07-01T12:56:58;11.20;;;5.82;;
19049;SDS011;9657;45.940;12.840;2022-07-01T12:59:27;7.72;;;5.05;;
19049;SDS011;9657;45.940;12.840;2022-07-01T13:01:55;11.27;;;5.57;;
19049;SDS011;9657;45.940;12.840;2022-07-01T13:04:26;13.10;;;6.18;;
19049;SDS011;9657;45.940;12.840;2022-07-01T13:06:54;11.55;;;6.00;;
19049;SDS011;9657;45.940;12.840;2022-07-01T13:09:21;9.85;;;5.70;;
19049;SDS011;9657;45.940;12.840;2022-07-01T13:11:48;10.13;;;5.95;;
19049;SDS011;9657;45.940;12.840;2022-07-01T13:14:15;11.65;;;6.70;;
19049;SDS011;9657;45.940;12.840;2022-07-01T13:16:43;13.65;;;5.80;;
19049;SDS011;9657;45.940;12.840;2022-07-01T13:19:10;10.55;;;5.57;;
19049;SDS011;9657;45.940;12.840;2022-07-01T13:21:37;11.35;;;6.07;;
19049;SDS011;9657;45.940;12.840;2022-07-01T13:24:04;9.48;;;5.63;;
19049;SDS011;9657;45.940;12.840;2022-07-01T13:26:31;10.77;;;5.57;;
19049;SDS011;9657;45.940;12.840;2022-07-01T13:28:58;11.32;;;5.72;;
19049;SDS011;9657;45.940;12.840;2022-07-01T13:31:25;9.93;;;6.18;;
19049;SDS011;9657;45.940;12.840;2022-07-01T13:33:54;11.25;;;5.90;;
19049;SDS011;9657;45.940;12.840;2022-07-01T13:36:21;14.82;;;5.75;;
19049;SDS011;9657;45.940;12.840;2022-07-01T13:38:48;10.43;;;5.88;;
19049;SDS011;9657;45.940;12.840;2022-07-01T13:41:15;9.35;;;5.75;;
19049;SDS011;9657;45.940;12.840;2022-07-01T13:43:42;7.60;;;5.50;;
19049;SDS011;9657;45.940;12.840;2022-07-01T13:46:09;13.10;;;6.05;;
19049;SDS011;9657;45.940;12.840;2022-07-01T13:48:36;8.63;;;5.63;;
19049;SDS011;9657;45.940;12.840;2022-07-01T13:51:04;9.23;;;5.30;;
19049;SDS011;9657;45.940;12.840;2022-07-01T13:53:31;9.13;;;5.78;;
19049;SDS011;9657;45.940;12.840;2022-07-01T13:55:58;9.82;;;5.38;;
19049;SDS011;9657;45.940;12.840;2022-07-01T13:58:25;11.02;;;5.95;;
19049;SDS011;9657;45.940;12.840;2022-07-01T14:00:52;10.57;;;5.70;;
19049;SDS011;9657;45.940;12.840;2022-07-01T14:03:19;8.93;;;5.32;;
19049;SDS011;9657;45.940;12.840;2022-07-01T14:05:47;10.70;;;5.38;;
19049;SDS011;9657;45.940;12.840;2022-07-01T14:08:15;9.40;;;5.53;;
19049;SDS011;9657;45.940;12.840;2022-07-01T14:10:42;9.73;;;5.63;;
19049;SDS011;9657;45.940;12.840;2022-07-01T14:13:11;10.05;;;5.85;;
19049;SDS011;9657;45.940;12.840;2022-07-01T14:15:38;7.80;;;5.40;;
19049;SDS011;9657;45.940;12.840;2022-07-01T14:18:05;10.43;;;5.78;;
19049;SDS011;9657;45.940;12.840;2022-07-01T14:20:33;7.82;;;5.20;;
19049;SDS011;9657;45.940;12.840;2022-07-01T14:23:00;7.13;;;4.57;;
19049;SDS011;9657;45.940;12.840;2022-07-01T14:25:29;7.25;;;4.90;;
19049;SDS011;9657;45.940;12.840;2022-07-01T14:27:56;6.78;;;5.35;;
19049;SDS011;9657;45.940;12.840;2022-07-01T14:30:23;9.55;;;5.38;;
19049;SDS011;9657;45.940;12.840;2022-07-01T14:32:50;6.65;;;5.10;;
19049;SDS011;9657;45.940;12.840;2022-07-01T14:35:17;11.80;;;5.68;;
19049;SDS011;9657;45.940;12.840;2022-07-01T14:37:44;8.95;;;5.40;;
19049;SDS011;9657;45.940;12.840;2022-07-01T14:40:11;7.25;;;4.95;;
19049;SDS011;9657;45.940;12.840;2022-07-01T14:42:40;7.82;;;5.50;;
19049;SDS011;9657;45.940;12.840;2022-07-01T14:45:07;8.25;;;4.75;;
19049;SDS011;9657;45.940;12.840;2022-07-01T14:47:35;11.88;;;5.82;;
19049;SDS011;9657;45.940;12.840;2022-07-01T14:50:02;7.05;;;5.30;;
19049;SDS011;9657;45.940;12.840;2022-07-01T14:52:30;6.93;;;4.93;;
19049;SDS011;9657;45.940;12.840;2022-07-01T14:54:57;8.38;;;4.53;;
19049;SDS011;9657;45.940;12.840;2022-07-01T14:57:24;8.43;;;5.32;;
19049;SDS011;9657;45.940;12.840;2022-07-01T14:59:53;9.90;;;5.00;;
19049;SDS011;9657;45.940;12.840;2022-07-01T15:02:20;8.13;;;5.18;;
19049;SDS011;9657;45.940;12.840;2022-07-01T15:04:47;7.78;;;4.63;;
19049;SDS011;9657;45.940;12.840;2022-07-01T15:07:14;5.32;;;4.82;;